Weather at Myrini - Karditsa Airfield

Public forecast

Using degrees Celsius for public forecast. Weather courtesy of forecast.io.

Closest aviation weather report (METAR) to Myrini - Karditsa Airfield

Closest report is Larissa Air Base, 26.2 nm (48.5 km) NE.

2024/05/28 16:50 (retrieved 19 minutes ago)

LGLR 281650Z 00000KT 9999 FEW035 SCT080 25/09 Q1011 RMK FEW180 BLU

Closest aviation forecast (TAF) to Myrini - Karditsa Airfield

Closest forecast is Aktion National Airport, 64.2 nm (118.9 km) WSW.

2024/05/28 14:33 Ammendment (retrieved 3 hours ago)

TAF AMD TAF AMD LGPZ 281425Z 2814/2912 26017KT 9999 SCT020 TEMPO 2814/2818 FEW018TCU SCT020 BECMG 2822/2824 05008KT PROB30 TEMPO 2822/2906 5000 RA FEW018TCU SCT020 BKN080 BECMG 2909/2911 27012KT